Terminal Aerodrome Forecast
Issued by NWS

Home | Current Version | Previous Version | Graphics & Text | Print | Product List | Glossary On
Versions: 1 2 3 4 5 6 7 8 9 10 11 12 13
144
FTUS41 KCLE 230520
TAFFDY
TAF
KFDY 230520Z 2306/2406 VRB03KT P6SM SKC
     FM231500 29004KT P6SM SCT045
     FM232100 16003KT P6SM SKC=

USA.gov is the U.S. government's official web portal to all federal, state and local government web resources and services.